sensor_id;sensor_type;location;lat;lon;timestamp;temperature;humidity
20418;DHT22;10368;51.436;6.774;2022-12-18T00:01:20;-3.10;99.90
20418;DHT22;10368;51.436;6.774;2022-12-18T00:03:47;-3.10;99.90
20418;DHT22;10368;51.436;6.774;2022-12-18T00:06:17;-2.90;99.90
20418;DHT22;10368;51.436;6.774;2022-12-18T00:08:46;-3.10;99.90
20418;DHT22;10368;51.436;6.774;2022-12-18T00:11:16;-3.20;99.90
20418;DHT22;10368;51.436;6.774;2022-12-18T00:13:44;-3.10;99.90
20418;DHT22;10368;51.436;6.774;2022-12-18T00:16:13;-3.20;99.90
20418;DHT22;10368;51.436;6.774;2022-12-18T00:18:42;-3.20;99.90
20418;DHT22;10368;51.436;6.774;2022-12-18T00:21:10;-3.00;99.90
20418;DHT22;10368;51.436;6.774;2022-12-18T00:23:38;-3.00;99.90
20418;DHT22;10368;51.436;6.774;2022-12-18T00:26:09;-3.00;99.90
20418;DHT22;10368;51.436;6.774;2022-12-18T00:28:36;-3.10;99.90
20418;DHT22;10368;51.436;6.774;2022-12-18T00:31:08;-3.00;99.90
20418;DHT22;10368;51.436;6.774;2022-12-18T00:33:35;-3.00;99.90
20418;DHT22;10368;51.436;6.774;2022-12-18T00:36:04;-2.90;99.90
20418;DHT22;10368;51.436;6.774;2022-12-18T00:38:32;-3.00;99.90
20418;DHT22;10368;51.436;6.774;2022-12-18T00:40:59;-3.00;99.90
20418;DHT22;10368;51.436;6.774;2022-12-18T00:43:26;-3.10;99.90
20418;DHT22;10368;51.436;6.774;2022-12-18T00:45:53;-3.20;99.90
20418;DHT22;10368;51.436;6.774;2022-12-18T00:48:20;-3.10;99.90
20418;DHT22;10368;51.436;6.774;2022-12-18T00:50:49;-3.00;99.90
20418;DHT22;10368;51.436;6.774;2022-12-18T00:53:17;-3.00;99.90
20418;DHT22;10368;51.436;6.774;2022-12-18T00:55:47;-3.10;99.90
20418;DHT22;10368;51.436;6.774;2022-12-18T00:58:16;-3.30;99.90
20418;DHT22;10368;51.436;6.774;2022-12-18T01:00:43;-3.00;99.90
20418;DHT22;10368;51.436;6.774;2022-12-18T01:03:13;-3.00;99.90
20418;DHT22;10368;51.436;6.774;2022-12-18T01:05:41;-3.00;99.90
20418;DHT22;10368;51.436;6.774;2022-12-18T01:08:08;-3.00;99.90
20418;DHT22;10368;51.436;6.774;2022-12-18T01:10:35;-3.00;99.90
20418;DHT22;10368;51.436;6.774;2022-12-18T01:13:02;-3.20;99.90
20418;DHT22;10368;51.436;6.774;2022-12-18T01:15:30;-3.10;99.90
20418;DHT22;10368;51.436;6.774;2022-12-18T01:17:57;-3.30;99.90
20418;DHT22;10368;51.436;6.774;2022-12-18T01:20:24;-3.20;99.90
20418;DHT22;10368;51.436;6.774;2022-12-18T01:22:51;-3.30;99.90
20418;DHT22;10368;51.436;6.774;2022-12-18T01:25:21;-3.30;99.90
20418;DHT22;10368;51.436;6.774;2022-12-18T01:27:48;-3.10;99.90
20418;DHT22;10368;51.436;6.774;2022-12-18T01:30:15;-3.20;99.90
20418;DHT22;10368;51.436;6.774;2022-12-18T01:32:42;-3.30;99.90
20418;DHT22;10368;51.436;6.774;2022-12-18T01:35:09;-3.30;99.90
20418;DHT22;10368;51.436;6.774;2022-12-18T01:37:36;-3.30;99.90
20418;DHT22;10368;51.436;6.774;2022-12-18T01:40:03;-3.20;99.90
20418;DHT22;10368;51.436;6.774;2022-12-18T01:42:30;-3.20;99.90
20418;DHT22;10368;51.436;6.774;2022-12-18T01:47:52;-3.40;99.90
20418;DHT22;10368;51.436;6.774;2022-12-18T01:53:15;-3.30;99.90
20418;DHT22;10368;51.436;6.774;2022-12-18T01:55:50;-3.20;99.90
20418;DHT22;10368;51.436;6.774;2022-12-18T01:58:20;-3.30;99.90
20418;DHT22;10368;51.436;6.774;2022-12-18T02:00:48;-3.30;99.90
20418;DHT22;10368;51.436;6.774;2022-12-18T02:03:15;-3.30;99.90
20418;DHT22;10368;51.436;6.774;2022-12-18T02:06:09;-3.10;99.90
20418;DHT22;10368;51.436;6.774;2022-12-18T02:08:48;-3.20;99.90
20418;DHT22;10368;51.436;6.774;2022-12-18T02:22:12;-3.40;99.90
20418;DHT22;10368;51.436;6.774;2022-12-18T02:24:59;-3.30;99.90
20418;DHT22;10368;51.436;6.774;2022-12-18T02:27:29;-3.10;99.90
20418;DHT22;10368;51.436;6.774;2022-12-18T02:29:59;-3.10;99.90
20418;DHT22;10368;51.436;6.774;2022-12-18T02:32:37;-3.10;99.90
20418;DHT22;10368;51.436;6.774;2022-12-18T02:35:06;-3.00;99.90
20418;DHT22;10368;51.436;6.774;2022-12-18T02:37:35;-2.90;99.90
20418;DHT22;10368;51.436;6.774;2022-12-18T02:40:04;-3.10;99.90
20418;DHT22;10368;51.436;6.774;2022-12-18T02:42:32;-3.10;99.90
20418;DHT22;10368;51.436;6.774;2022-12-18T02:44:59;-3.00;99.90
20418;DHT22;10368;51.436;6.774;2022-12-18T02:47:31;-3.10;99.90
20418;DHT22;10368;51.436;6.774;2022-12-18T02:50:08;-2.90;99.90
20418;DHT22;10368;51.436;6.774;2022-12-18T03:00:39;-3.00;99.90
20418;DHT22;10368;51.436;6.774;2022-12-18T03:03:18;-3.00;99.90
20418;DHT22;10368;51.436;6.774;2022-12-18T03:05:57;-2.90;99.90
20418;DHT22;10368;51.436;6.774;2022-12-18T03:08:37;-3.10;99.90
20418;DHT22;10368;51.436;6.774;2022-12-18T03:11:10;-3.30;99.90
20418;DHT22;10368;51.436;6.774;2022-12-18T03:13:41;-3.20;99.90
20418;DHT22;10368;51.436;6.774;2022-12-18T03:16:15;-3.10;99.90
20418;DHT22;10368;51.436;6.774;2022-12-18T03:19:08;-3.20;99.90
20418;DHT22;10368;51.436;6.774;2022-12-18T03:21:47;-3.10;99.90
20418;DHT22;10368;51.436;6.774;2022-12-18T03:24:17;-3.20;99.90
20418;DHT22;10368;51.436;6.774;2022-12-18T03:26:49;-3.10;99.90
20418;DHT22;10368;51.436;6.774;2022-12-18T03:29:38;-3.20;99.90
20418;DHT22;10368;51.436;6.774;2022-12-18T03:32:11;-3.30;99.90
20418;DHT22;10368;51.436;6.774;2022-12-18T03:34:42;-3.20;99.90
20418;DHT22;10368;51.436;6.774;2022-12-18T03:37:09;-3.20;99.90
20418;DHT22;10368;51.436;6.774;2022-12-18T03:39:36;-3.30;99.90
20418;DHT22;10368;51.436;6.774;2022-12-18T03:45:33;-3.20;99.90
20418;DHT22;10368;51.436;6.774;2022-12-18T03:51:17;-3.20;99.90
20418;DHT22;10368;51.436;6.774;2022-12-18T03:53:53;-3.20;99.90
20418;DHT22;10368;51.436;6.774;2022-12-18T03:56:25;-3.10;99.90
20418;DHT22;10368;51.436;6.774;2022-12-18T03:58:55;-3.10;99.90
20418;DHT22;10368;51.436;6.774;2022-12-18T04:01:31;-2.90;99.90
20418;DHT22;10368;51.436;6.774;2022-12-18T04:04:00;-2.80;99.90
20418;DHT22;10368;51.436;6.774;2022-12-18T04:06:29;-2.80;99.90
20418;DHT22;10368;51.436;6.774;2022-12-18T04:08:57;-2.70;99.90
20418;DHT22;10368;51.436;6.774;2022-12-18T04:11:25;-2.70;99.90
20418;DHT22;10368;51.436;6.774;2022-12-18T04:13:56;-2.80;99.90
20418;DHT22;10368;51.436;6.774;2022-12-18T04:16:27;-2.70;99.90
20418;DHT22;10368;51.436;6.774;2022-12-18T04:18:54;-2.60;99.90
20418;DHT22;10368;51.436;6.774;2022-12-18T04:21:21;-2.80;99.90
20418;DHT22;10368;51.436;6.774;2022-12-18T04:23:49;-2.60;99.90
20418;DHT22;10368;51.436;6.774;2022-12-18T04:26:16;-2.70;99.90
20418;DHT22;10368;51.436;6.774;2022-12-18T04:28:45;-2.70;99.90
20418;DHT22;10368;51.436;6.774;2022-12-18T04:31:13;-2.70;99.90
20418;DHT22;10368;51.436;6.774;2022-12-18T04:33:41;-2.80;99.90
20418;DHT22;10368;51.436;6.774;2022-12-18T04:36:09;-2.60;99.90
20418;DHT22;10368;51.436;6.774;2022-12-18T04:38:35;-2.70;99.90
20418;DHT22;10368;51.436;6.774;2022-12-18T04:41:02;-2.50;99.90
20418;DHT22;10368;51.436;6.774;2022-12-18T04:43:29;-2.70;99.90
20418;DHT22;10368;51.436;6.774;2022-12-18T04:46:07;-2.60;99.90
20418;DHT22;10368;51.436;6.774;2022-12-18T04:48:35;-2.70;99.90
20418;DHT22;10368;51.436;6.774;2022-12-18T04:51:03;-2.80;99.90
20418;DHT22;10368;51.436;6.774;2022-12-18T04:53:30;-2.70;99.90
20418;DHT22;10368;51.436;6.774;2022-12-18T04:56:23;-2.70;99.90
20418;DHT22;10368;51.436;6.774;2022-12-18T04:58:50;-2.70;99.90
20418;DHT22;10368;51.436;6.774;2022-12-18T05:01:17;-2.90;99.90
20418;DHT22;10368;51.436;6.774;2022-12-18T05:03:47;-2.90;99.90
20418;DHT22;10368;51.436;6.774;2022-12-18T05:06:14;-2.70;99.90
20418;DHT22;10368;51.436;6.774;2022-12-18T05:08:41;-2.70;99.90
20418;DHT22;10368;51.436;6.774;2022-12-18T05:11:10;-2.80;99.90
20418;DHT22;10368;51.436;6.774;2022-12-18T05:13:43;-2.90;99.90
20418;DHT22;10368;51.436;6.774;2022-12-18T05:16:12;-2.90;99.90
20418;DHT22;10368;51.436;6.774;2022-12-18T05:18:39;-3.00;99.90
20418;DHT22;10368;51.436;6.774;2022-12-18T05:21:06;-2.90;99.90
20418;DHT22;10368;51.436;6.774;2022-12-18T05:23:34;-2.90;99.90
20418;DHT22;10368;51.436;6.774;2022-12-18T05:26:06;-2.90;99.90
20418;DHT22;10368;51.436;6.774;2022-12-18T05:28:35;-2.90;99.90
20418;DHT22;10368;51.436;6.774;2022-12-18T05:31:03;-2.80;99.90
20418;DHT22;10368;51.436;6.774;2022-12-18T05:33:33;-3.00;99.90
20418;DHT22;10368;51.436;6.774;2022-12-18T05:36:02;-3.00;99.90
20418;DHT22;10368;51.436;6.774;2022-12-18T05:38:30;-3.00;99.90
20418;DHT22;10368;51.436;6.774;2022-12-18T05:40:58;-3.00;99.90
20418;DHT22;10368;51.436;6.774;2022-12-18T05:43:26;-2.90;99.90
20418;DHT22;10368;51.436;6.774;2022-12-18T05:45:54;-3.30;99.90
20418;DHT22;10368;51.436;6.774;2022-12-18T05:48:21;-3.10;99.90
20418;DHT22;10368;51.436;6.774;2022-12-18T05:50:49;-3.00;99.90
20418;DHT22;10368;51.436;6.774;2022-12-18T05:53:18;-3.20;99.90
20418;DHT22;10368;51.436;6.774;2022-12-18T05:55:48;-3.10;99.90
20418;DHT22;10368;51.436;6.774;2022-12-18T05:58:16;-3.30;99.90
20418;DHT22;10368;51.436;6.774;2022-12-18T06:00:44;-3.40;99.90
20418;DHT22;10368;51.436;6.774;2022-12-18T06:03:12;-3.40;99.90
20418;DHT22;10368;51.436;6.774;2022-12-18T06:05:43;-3.40;99.90
20418;DHT22;10368;51.436;6.774;2022-12-18T06:08:11;-3.30;99.90
20418;DHT22;10368;51.436;6.774;2022-12-18T06:10:38;-3.20;99.90
20418;DHT22;10368;51.436;6.774;2022-12-18T06:13:06;-3.40;99.90
20418;DHT22;10368;51.436;6.774;2022-12-18T06:15:36;-3.30;99.90
20418;DHT22;10368;51.436;6.774;2022-12-18T06:18:03;-3.20;99.90
20418;DHT22;10368;51.436;6.774;2022-12-18T06:20:30;-3.30;99.90
20418;DHT22;10368;51.436;6.774;2022-12-18T06:22:59;-3.30;99.90
20418;DHT22;10368;51.436;6.774;2022-12-18T06:25:26;-3.20;99.90
20418;DHT22;10368;51.436;6.774;2022-12-18T06:27:53;-3.30;99.90
20418;DHT22;10368;51.436;6.774;2022-12-18T06:30:20;-3.40;99.90
20418;DHT22;10368;51.436;6.774;2022-12-18T06:32:50;-3.50;99.90
20418;DHT22;10368;51.436;6.774;2022-12-18T06:35:22;-3.50;99.90
20418;DHT22;10368;51.436;6.774;2022-12-18T06:37:52;-3.50;99.90
20418;DHT22;10368;51.436;6.774;2022-12-18T06:40:19;-3.30;99.90
20418;DHT22;10368;51.436;6.774;2022-12-18T06:42:46;-3.20;99.90
20418;DHT22;10368;51.436;6.774;2022-12-18T06:45:13;-3.30;99.90
20418;DHT22;10368;51.436;6.774;2022-12-18T06:47:40;-3.40;99.90
20418;DHT22;10368;51.436;6.774;2022-12-18T06:50:07;-3.30;99.90
20418;DHT22;10368;51.436;6.774;2022-12-18T06:52:34;-3.30;99.90
20418;DHT22;10368;51.436;6.774;2022-12-18T06:55:00;-3.30;99.90
20418;DHT22;10368;51.436;6.774;2022-12-18T06:57:27;-3.30;99.90
20418;DHT22;10368;51.436;6.774;2022-12-18T06:59:54;-3.30;99.90
20418;DHT22;10368;51.436;6.774;2022-12-18T07:02:21;-3.30;99.90
20418;DHT22;10368;51.436;6.774;2022-12-18T07:04:48;-3.30;99.90
20418;DHT22;10368;51.436;6.774;2022-12-18T07:07:15;-3.30;99.90
20418;DHT22;10368;51.436;6.774;2022-12-18T07:09:42;-3.40;99.90
20418;DHT22;10368;51.436;6.774;2022-12-18T07:12:09;-3.50;99.90
20418;DHT22;10368;51.436;6.774;2022-12-18T07:14:36;-3.40;99.90
20418;DHT22;10368;51.436;6.774;2022-12-18T07:17:03;-3.40;99.90
20418;DHT22;10368;51.436;6.774;2022-12-18T07:19:31;-3.40;99.90
20418;DHT22;10368;51.436;6.774;2022-12-18T07:21:58;-3.60;99.90
20418;DHT22;10368;51.436;6.774;2022-12-18T07:24:24;-3.70;99.90
20418;DHT22;10368;51.436;6.774;2022-12-18T07:26:51;-3.60;99.90
20418;DHT22;10368;51.436;6.774;2022-12-18T07:29:23;-3.50;99.90
20418;DHT22;10368;51.436;6.774;2022-12-18T07:31:53;-3.50;99.90
20418;DHT22;10368;51.436;6.774;2022-12-18T07:34:20;-3.50;99.90
20418;DHT22;10368;51.436;6.774;2022-12-18T07:36:47;-3.40;99.90
20418;DHT22;10368;51.436;6.774;2022-12-18T07:39:14;-3.50;99.90
20418;DHT22;10368;51.436;6.774;2022-12-18T07:41:40;-3.70;99.90
20418;DHT22;10368;51.436;6.774;2022-12-18T07:44:13;-3.60;99.90
20418;DHT22;10368;51.436;6.774;2022-12-18T07:46:40;-3.50;99.90
20418;DHT22;10368;51.436;6.774;2022-12-18T07:49:07;-3.70;99.90
20418;DHT22;10368;51.436;6.774;2022-12-18T07:51:36;-3.70;99.90
20418;DHT22;10368;51.436;6.774;2022-12-18T07:54:03;-3.70;99.90
20418;DHT22;10368;51.436;6.774;2022-12-18T07:56:31;-3.60;99.90
20418;DHT22;10368;51.436;6.774;2022-12-18T07:58:58;-3.60;99.90
20418;DHT22;10368;51.436;6.774;2022-12-18T08:01:26;-3.50;99.90
20418;DHT22;10368;51.436;6.774;2022-12-18T08:03:53;-3.40;99.90
20418;DHT22;10368;51.436;6.774;2022-12-18T08:06:20;-3.50;99.90
20418;DHT22;10368;51.436;6.774;2022-12-18T08:08:54;-3.50;99.90
20418;DHT22;10368;51.436;6.774;2022-12-18T08:11:22;-3.70;99.90
20418;DHT22;10368;51.436;6.774;2022-12-18T08:13:50;-3.40;99.90
20418;DHT22;10368;51.436;6.774;2022-12-18T08:16:17;-3.40;99.90
20418;DHT22;10368;51.436;6.774;2022-12-18T08:18:45;-3.30;99.90
20418;DHT22;10368;51.436;6.774;2022-12-18T08:21:18;-3.20;99.90
20418;DHT22;10368;51.436;6.774;2022-12-18T08:23:47;-3.20;99.90
20418;DHT22;10368;51.436;6.774;2022-12-18T08:26:17;-3.10;99.90
20418;DHT22;10368;51.436;6.774;2022-12-18T08:28:44;-3.10;99.90
20418;DHT22;10368;51.436;6.774;2022-12-18T08:31:11;-3.20;99.90
20418;DHT22;10368;51.436;6.774;2022-12-18T08:33:39;-3.10;99.90
20418;DHT22;10368;51.436;6.774;2022-12-18T08:36:09;-3.10;99.90
20418;DHT22;10368;51.436;6.774;2022-12-18T08:38:36;-3.00;99.90
20418;DHT22;10368;51.436;6.774;2022-12-18T08:41:05;-3.20;99.90
20418;DHT22;10368;51.436;6.774;2022-12-18T08:43:32;-3.10;99.90
20418;DHT22;10368;51.436;6.774;2022-12-18T08:46:19;-3.00;99.90
20418;DHT22;10368;51.436;6.774;2022-12-18T08:48:48;-3.10;99.90
20418;DHT22;10368;51.436;6.774;2022-12-18T08:51:16;-2.90;99.90
20418;DHT22;10368;51.436;6.774;2022-12-18T08:53:43;-3.00;99.90
20418;DHT22;10368;51.436;6.774;2022-12-18T08:56:14;-2.70;99.90
20418;DHT22;10368;51.436;6.774;2022-12-18T08:58:41;-2.70;99.90
20418;DHT22;10368;51.436;6.774;2022-12-18T09:01:10;-2.70;99.90
20418;DHT22;10368;51.436;6.774;2022-12-18T09:03:37;-2.70;99.90
20418;DHT22;10368;51.436;6.774;2022-12-18T09:06:06;-2.50;99.90
20418;DHT22;10368;51.436;6.774;2022-12-18T09:08:33;-2.50;99.90
20418;DHT22;10368;51.436;6.774;2022-12-18T09:11:01;-2.50;99.90
20418;DHT22;10368;51.436;6.774;2022-12-18T09:13:28;-2.30;99.90
20418;DHT22;10368;51.436;6.774;2022-12-18T09:15:55;-2.30;99.90
20418;DHT22;10368;51.436;6.774;2022-12-18T09:18:23;-2.30;99.90
20418;DHT22;10368;51.436;6.774;2022-12-18T09:20:50;-2.20;99.90
20418;DHT22;10368;51.436;6.774;2022-12-18T09:23:19;-2.10;99.90
20418;DHT22;10368;51.436;6.774;2022-12-18T09:25:46;-1.90;99.90
20418;DHT22;10368;51.436;6.774;2022-12-18T09:28:15;-1.90;99.90
20418;DHT22;10368;51.436;6.774;2022-12-18T09:30:44;-1.90;99.90
20418;DHT22;10368;51.436;6.774;2022-12-18T09:33:12;-1.80;99.90
20418;DHT22;10368;51.436;6.774;2022-12-18T09:35:41;-1.80;99.90
20418;DHT22;10368;51.436;6.774;2022-12-18T09:38:16;-1.60;99.90
20418;DHT22;10368;51.436;6.774;2022-12-18T09:40:51;-1.50;99.90
20418;DHT22;10368;51.436;6.774;2022-12-18T09:43:30;-1.40;99.90
20418;DHT22;10368;51.436;6.774;2022-12-18T09:46:08;-1.10;99.90
20418;DHT22;10368;51.436;6.774;2022-12-18T09:48:44;-1.00;99.90
20418;DHT22;10368;51.436;6.774;2022-12-18T09:51:13;-1.20;99.90
20418;DHT22;10368;51.436;6.774;2022-12-18T09:53:44;-1.10;99.90
20418;DHT22;10368;51.436;6.774;2022-12-18T09:56:17;-1.00;99.90
20418;DHT22;10368;51.436;6.774;2022-12-18T09:59:04;-0.90;99.90
20418;DHT22;10368;51.436;6.774;2022-12-18T10:01:32;-0.70;99.90
20418;DHT22;10368;51.436;6.774;2022-12-18T10:04:09;-0.60;99.90
20418;DHT22;10368;51.436;6.774;2022-12-18T10:09:53;-0.40;99.90
20418;DHT22;10368;51.436;6.774;2022-12-18T10:13:30;-0.40;99.90
20418;DHT22;10368;51.436;6.774;2022-12-18T10:15:39;-0.50;99.90
20418;DHT22;10368;51.436;6.774;2022-12-18T10:21:11;-0.20;99.90
20418;DHT22;10368;51.436;6.774;2022-12-18T10:26:32;0.00;99.90
20418;DHT22;10368;51.436;6.774;2022-12-18T10:28:59;0.00;99.90
20418;DHT22;10368;51.436;6.774;2022-12-18T10:31:31;0.10;99.90
20418;DHT22;10368;51.436;6.774;2022-12-18T10:33:58;0.30;99.90
20418;DHT22;10368;51.436;6.774;2022-12-18T10:38:52;0.40;99.90
20418;DHT22;10368;51.436;6.774;2022-12-18T10:46:38;0.60;99.90
20418;DHT22;10368;51.436;6.774;2022-12-18T10:51:35;0.60;99.90
20418;DHT22;10368;51.436;6.774;2022-12-18T10:54:05;0.70;99.90
20418;DHT22;10368;51.436;6.774;2022-12-18T10:56:36;0.80;99.90
20418;DHT22;10368;51.436;6.774;2022-12-18T10:59:11;0.80;99.90
20418;DHT22;10368;51.436;6.774;2022-12-18T11:01:55;0.90;99.90
20418;DHT22;10368;51.436;6.774;2022-12-18T11:04:32;0.90;99.90
20418;DHT22;10368;51.436;6.774;2022-12-18T11:07:07;1.00;99.90
20418;DHT22;10368;51.436;6.774;2022-12-18T11:09:36;1.10;99.90
20418;DHT22;10368;51.436;6.774;2022-12-18T11:19:55;1.20;99.90
20418;DHT22;10368;51.436;6.774;2022-12-18T11:25:02;1.30;99.90
20418;DHT22;10368;51.436;6.774;2022-12-18T11:28:03;1.40;99.90
20418;DHT22;10368;51.436;6.774;2022-12-18T11:30:34;1.40;99.90
20418;DHT22;10368;51.436;6.774;2022-12-18T11:33:13;1.40;99.90
20418;DHT22;10368;51.436;6.774;2022-12-18T11:35:56;1.40;99.90
20418;DHT22;10368;51.436;6.774;2022-12-18T11:38:28;1.50;99.90
20418;DHT22;10368;51.436;6.774;2022-12-18T11:43:44;1.50;99.90
20418;DHT22;10368;51.436;6.774;2022-12-18T11:46:18;1.60;99.90
20418;DHT22;10368;51.436;6.774;2022-12-18T11:48:58;1.60;99.90
20418;DHT22;10368;51.436;6.774;2022-12-18T11:51:41;1.60;99.90
20418;DHT22;10368;51.436;6.774;2022-12-18T11:54:13;1.60;99.90
20418;DHT22;10368;51.436;6.774;2022-12-18T11:56:53;1.60;99.90
20418;DHT22;10368;51.436;6.774;2022-12-18T11:59:30;1.60;99.90
20418;DHT22;10368;51.436;6.774;2022-12-18T12:32:59;1.70;99.90
20418;DHT22;10368;51.436;6.774;2022-12-18T12:38:24;1.70;99.90
20418;DHT22;10368;51.436;6.774;2022-12-18T12:41:02;1.70;99.90
20418;DHT22;10368;51.436;6.774;2022-12-18T12:46:01;1.60;99.90
20418;DHT22;10368;51.436;6.774;2022-12-18T12:51:26;1.60;99.90
20418;DHT22;10368;51.436;6.774;2022-12-18T12:53:57;1.60;99.90
20418;DHT22;10368;51.436;6.774;2022-12-18T12:56:36;1.60;99.90
20418;DHT22;10368;51.436;6.774;2022-12-18T13:01:59;1.60;99.90
20418;DHT22;10368;51.436;6.774;2022-12-18T13:04:39;1.50;99.90
20418;DHT22;10368;51.436;6.774;2022-12-18T13:07:29;1.50;99.90
20418;DHT22;10368;51.436;6.774;2022-12-18T13:13:03;1.50;99.90
20418;DHT22;10368;51.436;6.774;2022-12-18T13:16:03;1.50;99.90
20418;DHT22;10368;51.436;6.774;2022-12-18T13:18:32;1.50;99.90
20418;DHT22;10368;51.436;6.774;2022-12-18T13:23:35;1.50;99.90
20418;DHT22;10368;51.436;6.774;2022-12-18T13:31:01;1.50;99.90
20418;DHT22;10368;51.436;6.774;2022-12-18T13:38:42;1.50;99.90
20418;DHT22;10368;51.436;6.774;2022-12-18T13:41:26;1.50;99.90
20418;DHT22;10368;51.436;6.774;2022-12-18T13:43:55;1.40;99.90
20418;DHT22;10368;51.436;6.774;2022-12-18T13:49:02;1.40;99.90
20418;DHT22;10368;51.436;6.774;2022-12-18T13:51:32;1.50;99.90
20418;DHT22;10368;51.436;6.774;2022-12-18T13:54:02;1.40;99.90
20418;DHT22;10368;51.436;6.774;2022-12-18T13:56:33;1.40;99.90
20418;DHT22;10368;51.436;6.774;2022-12-18T13:59:33;1.50;99.90
20418;DHT22;10368;51.436;6.774;2022-12-18T14:04:39;1.40;99.90
20418;DHT22;10368;51.436;6.774;2022-12-18T14:07:16;1.40;99.90
20418;DHT22;10368;51.436;6.774;2022-12-18T14:09:50;1.40;99.90
20418;DHT22;10368;51.436;6.774;2022-12-18T14:12:24;1.40;99.90
20418;DHT22;10368;51.436;6.774;2022-12-18T14:17:55;1.40;99.90
20418;DHT22;10368;51.436;6.774;2022-12-18T14:20:29;1.40;99.90
20418;DHT22;10368;51.436;6.774;2022-12-18T14:22:58;1.30;99.90
20418;DHT22;10368;51.436;6.774;2022-12-18T14:25:29;1.40;99.90
20418;DHT22;10368;51.436;6.774;2022-12-18T14:30:40;1.30;99.90
20418;DHT22;10368;51.436;6.774;2022-12-18T14:33:15;1.40;99.90
20418;DHT22;10368;51.436;6.774;2022-12-18T14:36:03;1.40;99.90
20418;DHT22;10368;51.436;6.774;2022-12-18T14:38:33;1.40;99.90
20418;DHT22;10368;51.436;6.774;2022-12-18T14:41:10;1.40;99.90
20418;DHT22;10368;51.436;6.774;2022-12-18T14:43:39;1.40;99.90
20418;DHT22;10368;51.436;6.774;2022-12-18T14:46:28;1.30;99.90
20418;DHT22;10368;51.436;6.774;2022-12-18T14:48:56;1.30;99.90
20418;DHT22;10368;51.436;6.774;2022-12-18T14:51:31;1.30;99.90
20418;DHT22;10368;51.436;6.774;2022-12-18T14:54:02;1.30;99.90
20418;DHT22;10368;51.436;6.774;2022-12-18T14:56:33;1.20;99.90
20418;DHT22;10368;51.436;6.774;2022-12-18T14:59:05;1.20;99.90
20418;DHT22;10368;51.436;6.774;2022-12-18T15:01:36;1.30;99.90
20418;DHT22;10368;51.436;6.774;2022-12-18T15:04:05;1.30;99.90
20418;DHT22;10368;51.436;6.774;2022-12-18T15:06:50;1.30;99.90
20418;DHT22;10368;51.436;6.774;2022-12-18T15:09:28;1.20;99.90
20418;DHT22;10368;51.436;6.774;2022-12-18T15:11:58;1.20;99.90
20418;DHT22;10368;51.436;6.774;2022-12-18T15:17:00;1.20;99.90
20418;DHT22;10368;51.436;6.774;2022-12-18T15:19:40;1.20;99.90
20418;DHT22;10368;51.436;6.774;2022-12-18T15:22:26;1.20;99.90
20418;DHT22;10368;51.436;6.774;2022-12-18T15:24:55;1.20;99.90
20418;DHT22;10368;51.436;6.774;2022-12-18T15:27:33;1.20;99.90
20418;DHT22;10368;51.436;6.774;2022-12-18T15:32:38;1.10;99.90
20418;DHT22;10368;51.436;6.774;2022-12-18T15:35:16;1.20;99.90
20418;DHT22;10368;51.436;6.774;2022-12-18T15:37:46;1.10;99.90
20418;DHT22;10368;51.436;6.774;2022-12-18T15:40:19;1.10;99.90
20418;DHT22;10368;51.436;6.774;2022-12-18T15:42:46;1.10;99.90
20418;DHT22;10368;51.436;6.774;2022-12-18T15:45:32;1.10;99.90
20418;DHT22;10368;51.436;6.774;2022-12-18T15:48:06;1.10;99.90
20418;DHT22;10368;51.436;6.774;2022-12-18T15:50:34;1.10;99.90
20418;DHT22;10368;51.436;6.774;2022-12-18T15:53:01;1.10;99.90
20418;DHT22;10368;51.436;6.774;2022-12-18T15:55:33;1.10;99.90
20418;DHT22;10368;51.436;6.774;2022-12-18T15:58:26;1.10;99.90
20418;DHT22;10368;51.436;6.774;2022-12-18T16:00:55;1.10;99.90
20418;DHT22;10368;51.436;6.774;2022-12-18T16:03:25;1.00;99.90
20418;DHT22;10368;51.436;6.774;2022-12-18T16:05:54;1.00;99.90
20418;DHT22;10368;51.436;6.774;2022-12-18T16:08:22;1.00;99.90
20418;DHT22;10368;51.436;6.774;2022-12-18T16:10:49;1.00;99.90
20418;DHT22;10368;51.436;6.774;2022-12-18T16:13:18;1.00;99.90
20418;DHT22;10368;51.436;6.774;2022-12-18T16:15:46;1.00;99.90
20418;DHT22;10368;51.436;6.774;2022-12-18T16:18:13;0.90;99.90
20418;DHT22;10368;51.436;6.774;2022-12-18T16:20:40;0.90;99.90
20418;DHT22;10368;51.436;6.774;2022-12-18T16:23:07;0.90;99.90
20418;DHT22;10368;51.436;6.774;2022-12-18T16:25:34;0.90;99.90
20418;DHT22;10368;51.436;6.774;2022-12-18T16:28:01;0.90;99.90
20418;DHT22;10368;51.436;6.774;2022-12-18T16:30:30;0.90;99.90
20418;DHT22;10368;51.436;6.774;2022-12-18T16:33:03;0.90;99.90
20418;DHT22;10368;51.436;6.774;2022-12-18T16:35:30;0.90;99.90
20418;DHT22;10368;51.436;6.774;2022-12-18T16:37:57;0.90;99.90
20418;DHT22;10368;51.436;6.774;2022-12-18T16:40:24;0.90;99.90
20418;DHT22;10368;51.436;6.774;2022-12-18T16:42:51;0.90;99.90
20418;DHT22;10368;51.436;6.774;2022-12-18T16:45:18;0.90;99.90
20418;DHT22;10368;51.436;6.774;2022-12-18T16:47:45;0.80;99.90
20418;DHT22;10368;51.436;6.774;2022-12-18T16:50:12;0.80;99.90
20418;DHT22;10368;51.436;6.774;2022-12-18T16:52:39;0.80;99.90
20418;DHT22;10368;51.436;6.774;2022-12-18T16:55:07;0.80;99.90
20418;DHT22;10368;51.436;6.774;2022-12-18T16:57:34;0.70;99.90
20418;DHT22;10368;51.436;6.774;2022-12-18T17:00:02;0.70;99.90
20418;DHT22;10368;51.436;6.774;2022-12-18T17:02:32;0.70;99.90
20418;DHT22;10368;51.436;6.774;2022-12-18T17:04:59;0.80;99.90
20418;DHT22;10368;51.436;6.774;2022-12-18T17:07:27;0.80;99.90
20418;DHT22;10368;51.436;6.774;2022-12-18T17:09:55;0.70;99.90
20418;DHT22;10368;51.436;6.774;2022-12-18T17:12:22;0.70;99.90
20418;DHT22;10368;51.436;6.774;2022-12-18T17:14:49;0.60;99.90
20418;DHT22;10368;51.436;6.774;2022-12-18T17:17:17;0.60;99.90
20418;DHT22;10368;51.436;6.774;2022-12-18T17:19:47;0.60;99.90
20418;DHT22;10368;51.436;6.774;2022-12-18T17:22:14;0.60;99.90
20418;DHT22;10368;51.436;6.774;2022-12-18T17:24:40;0.60;99.90
20418;DHT22;10368;51.436;6.774;2022-12-18T17:27:07;0.60;99.90
20418;DHT22;10368;51.436;6.774;2022-12-18T17:29:34;0.60;99.90
20418;DHT22;10368;51.436;6.774;2022-12-18T17:32:01;0.60;99.90
20418;DHT22;10368;51.436;6.774;2022-12-18T17:34:28;0.60;99.90
20418;DHT22;10368;51.436;6.774;2022-12-18T17:36:56;0.60;99.90
20418;DHT22;10368;51.436;6.774;2022-12-18T17:39:23;0.60;99.90
20418;DHT22;10368;51.436;6.774;2022-12-18T17:41:51;0.50;99.90
20418;DHT22;10368;51.436;6.774;2022-12-18T17:44:18;0.50;99.90
20418;DHT22;10368;51.436;6.774;2022-12-18T17:46:45;0.50;99.90
20418;DHT22;10368;51.436;6.774;2022-12-18T17:49:12;0.50;99.90
20418;DHT22;10368;51.436;6.774;2022-12-18T17:51:40;0.50;99.90
20418;DHT22;10368;51.436;6.774;2022-12-18T17:54:09;0.50;99.90
20418;DHT22;10368;51.436;6.774;2022-12-18T17:56:37;0.50;99.90
20418;DHT22;10368;51.436;6.774;2022-12-18T17:59:05;0.50;99.90
20418;DHT22;10368;51.436;6.774;2022-12-18T18:01:32;0.50;99.90
20418;DHT22;10368;51.436;6.774;2022-12-18T18:04:04;0.50;99.90
20418;DHT22;10368;51.436;6.774;2022-12-18T18:06:33;0.50;99.90
20418;DHT22;10368;51.436;6.774;2022-12-18T18:09:02;0.50;99.90
20418;DHT22;10368;51.436;6.774;2022-12-18T18:11:29;0.50;99.90
20418;DHT22;10368;51.436;6.774;2022-12-18T18:14:19;0.50;99.90
20418;DHT22;10368;51.436;6.774;2022-12-18T18:16:48;0.40;99.90